74IL weather

Corn Alley 2 Airport
El Paso, Illinois, United States

Public forecast

Using degrees Fahrenheit for public forecast. Weather courtesy of forecast.io.

Closest aviation weather report (METAR) to Corn Alley 2 Airport

Closest report is Central Illinois Regional Airport at Bloomington-Normal, 17.3 nm (32.1 km) SSE. Retrieved 2020/04/04 02:05 UTC (7 minutes ago):

KBMI 040205Z 34013KT 10SM OVC043 14/09 A3001 RMK AO2 WSHFT 0149

Closest aviation forecast (TAF) to Corn Alley 2 Airport

Closest forecast is Central Illinois Regional Airport at Bloomington-Normal, 17.3 nm (32.1 km) SSE. Retrieved 2020-04-04 00:45 UTC (1 hour ago):

TAF KBMI 032342Z 0400/0424 17009KT P6SM BKN060 FM040100 30012KT P6SM OVC060 FM040500 32011KT P6SM VCSH OVC015 FM040800 32011KT 6SM -SHRA OVC009 FM041400 34010KT P6SM BKN015 FM042000 36009KT P6SM SCT090